sensor_id;sensor_type;location;lat;lon;timestamp;pressure;altitude;pressure_sealevel;temperature;humidity
47260;BME280;32999;52.412;4.890;2023-03-11T00:16:21;100761.94;;;3.38;100.00
47260;BME280;32999;52.412;4.890;2023-03-11T00:21:30;100762.09;;;3.27;100.00
47260;BME280;32999;52.412;4.890;2023-03-11T00:33:17;100771.97;;;3.35;100.00
47260;BME280;32999;52.412;4.890;2023-03-11T00:38:41;100686.69;;;2.57;100.00
47260;BME280;32999;52.412;4.890;2023-03-11T00:44:11;100796.88;;;3.13;100.00
47260;BME280;32999;52.412;4.890;2023-03-11T00:55:33;100804.50;;;3.35;100.00
47260;BME280;32999;52.412;4.890;2023-03-11T01:07:04;100812.41;;;3.26;100.00
47260;BME280;32999;52.412;4.890;2023-03-11T01:12:27;100819.38;;;3.36;100.00
47260;BME280;32999;52.412;4.890;2023-03-11T01:36:12;100802.66;;;2.78;100.00
47260;BME280;32999;52.412;4.890;2023-03-11T01:42:00;100835.88;;;3.00;100.00
47260;BME280;32999;52.412;4.890;2023-03-11T01:53:32;100843.28;;;2.96;100.00
47260;BME280;32999;52.412;4.890;2023-03-11T02:04:59;100843.94;;;2.79;100.00
47260;BME280;32999;52.412;4.890;2023-03-11T02:16:12;100860.16;;;2.74;100.00
47260;BME280;32999;52.412;4.890;2023-03-11T02:21:45;100790.03;;;2.13;100.00
47260;BME280;32999;52.412;4.890;2023-03-11T02:27:31;100865.44;;;2.65;100.00
47260;BME280;32999;52.412;4.890;2023-03-11T02:33:35;100864.88;;;2.61;100.00
47260;BME280;32999;52.412;4.890;2023-03-11T02:39:33;100782.25;;;1.81;100.00
47260;BME280;32999;52.412;4.890;2023-03-11T02:45:09;100731.50;;;1.48;100.00
47260;BME280;32999;52.412;4.890;2023-03-11T02:50:45;100711.47;;;1.36;100.00
47260;BME280;32999;52.412;4.890;2023-03-11T02:56:09;100864.81;;;2.42;100.00
47260;BME280;32999;52.412;4.890;2023-03-11T03:01:32;100731.19;;;1.42;100.00
47260;BME280;32999;52.412;4.890;2023-03-11T03:07:07;100750.19;;;1.45;100.00
47260;BME280;32999;52.412;4.890;2023-03-11T03:12:24;100763.66;;;1.52;100.00
47260;BME280;32999;52.412;4.890;2023-03-11T03:17:40;100879.41;;;2.16;100.00
47260;BME280;32999;52.412;4.890;2023-03-11T03:22:51;100901.00;;;2.10;100.00
47260;BME280;32999;52.412;4.890;2023-03-11T03:28:26;100916.56;;;2.13;100.00
47260;BME280;32999;52.412;4.890;2023-03-11T03:34:30;100759.63;;;1.06;100.00
47260;BME280;32999;52.412;4.890;2023-03-11T03:40:44;100778.03;;;1.06;100.00
47260;BME280;32999;52.412;4.890;2023-03-11T03:46:34;100929.69;;;1.82;100.00
47260;BME280;32999;52.412;4.890;2023-03-11T03:52:04;100937.78;;;1.90;100.00
47260;BME280;32999;52.412;4.890;2023-03-11T03:57:27;100939.72;;;1.88;100.00
47260;BME280;32999;52.412;4.890;2023-03-11T04:02:53;100860.00;;;1.33;100.00
47260;BME280;32999;52.412;4.890;2023-03-11T04:08:21;100937.13;;;1.77;100.00
47260;BME280;32999;52.412;4.890;2023-03-11T04:13:31;100951.78;;;1.70;100.00
47260;BME280;32999;52.412;4.890;2023-03-11T04:18:44;100958.66;;;1.61;100.00
47260;BME280;32999;52.412;4.890;2023-03-11T04:23:51;100972.66;;;1.62;100.00
47260;BME280;32999;52.412;4.890;2023-03-11T04:29:06;100827.66;;;0.79;100.00
47260;BME280;32999;52.412;4.890;2023-03-11T04:34:13;100876.44;;;0.94;100.00
47260;BME280;32999;52.412;4.890;2023-03-11T04:39:21;100956.13;;;1.60;100.00
47260;BME280;32999;52.412;4.890;2023-03-11T04:44:33;100932.41;;;1.28;100.00
47260;BME280;32999;52.412;4.890;2023-03-11T04:50:01;100964.34;;;1.46;100.00
47260;BME280;32999;52.412;4.890;2023-03-11T04:55:17;100862.56;;;0.81;100.00
47260;BME280;32999;52.412;4.890;2023-03-11T05:00:20;100930.66;;;1.17;100.00
47260;BME280;32999;52.412;4.890;2023-03-11T05:05:26;100960.28;;;1.30;100.00
47260;BME280;32999;52.412;4.890;2023-03-11T05:10:29;100884.00;;;0.65;100.00
47260;BME280;32999;52.412;4.890;2023-03-11T05:15:31;100980.69;;;1.06;100.00
47260;BME280;32999;52.412;4.890;2023-03-11T05:20:36;100970.28;;;1.05;100.00
47260;BME280;32999;52.412;4.890;2023-03-11T05:25:39;100982.16;;;0.99;100.00
47260;BME280;32999;52.412;4.890;2023-03-11T05:30:41;100978.81;;;0.97;100.00
47260;BME280;32999;52.412;4.890;2023-03-11T05:35:46;100982.75;;;0.91;100.00
47260;BME280;32999;52.412;4.890;2023-03-11T05:40:53;100880.81;;;0.17;100.00
47260;BME280;32999;52.412;4.890;2023-03-11T05:46:01;101000.09;;;0.72;100.00
47260;BME280;32999;52.412;4.890;2023-03-11T05:51:09;100951.28;;;0.34;100.00
47260;BME280;32999;52.412;4.890;2023-03-11T05:56:28;101028.66;;;0.76;100.00
47260;BME280;32999;52.412;4.890;2023-03-11T06:01:31;101016.13;;;0.68;100.00
47260;BME280;32999;52.412;4.890;2023-03-11T06:06:40;100919.59;;;0.02;100.00
47260;BME280;32999;52.412;4.890;2023-03-11T06:11:44;100994.41;;;0.31;100.00
47260;BME280;32999;52.412;4.890;2023-03-11T06:16:54;100870.09;;;-0.38;100.00
47260;BME280;32999;52.412;4.890;2023-03-11T06:28:10;101046.09;;;0.55;100.00
47260;BME280;32999;52.412;4.890;2023-03-11T06:33:14;101035.94;;;0.61;100.00
47260;BME280;32999;52.412;4.890;2023-03-11T06:38:21;100903.41;;;-0.27;100.00
47260;BME280;32999;52.412;4.890;2023-03-11T06:43:26;100877.72;;;-0.35;100.00
47260;BME280;32999;52.412;4.890;2023-03-11T06:48:30;101062.63;;;0.68;100.00
47260;BME280;32999;52.412;4.890;2023-03-11T06:53:33;101084.84;;;0.75;100.00
47260;BME280;32999;52.412;4.890;2023-03-11T06:58:42;101085.22;;;0.82;100.00
47260;BME280;32999;52.412;4.890;2023-03-11T07:03:50;100950.41;;;0.00;100.00
47260;BME280;32999;52.412;4.890;2023-03-11T07:08:54;101103.44;;;0.96;100.00
47260;BME280;32999;52.412;4.890;2023-03-11T07:13:57;101086.06;;;1.05;100.00
47260;BME280;32999;52.412;4.890;2023-03-11T07:19:00;101089.69;;;1.15;100.00
47260;BME280;32999;52.412;4.890;2023-03-11T07:24:06;101100.06;;;1.50;100.00
47260;BME280;32999;52.412;4.890;2023-03-11T07:29:15;101101.72;;;1.62;100.00
47260;BME280;32999;52.412;4.890;2023-03-11T07:34:18;101123.13;;;1.80;100.00
47260;BME280;32999;52.412;4.890;2023-03-11T07:39:20;101104.47;;;2.15;100.00
47260;BME280;32999;52.412;4.890;2023-03-11T07:44:24;101054.13;;;2.38;100.00
47260;BME280;32999;52.412;4.890;2023-03-11T07:49:25;101122.38;;;3.15;100.00
47260;BME280;32999;52.412;4.890;2023-03-11T07:54:28;101072.91;;;3.17;100.00
47260;BME280;32999;52.412;4.890;2023-03-11T09:35:50;101195.88;;;11.85;100.00
47260;BME280;32999;52.412;4.890;2023-03-11T09:40:57;101192.47;;;12.27;100.00
47260;BME280;32999;52.412;4.890;2023-03-11T09:46:05;101178.41;;;11.75;100.00
47260;BME280;32999;52.412;4.890;2023-03-11T09:51:22;101183.47;;;11.55;100.00
47260;BME280;32999;52.412;4.890;2023-03-11T09:56:26;101165.00;;;10.78;100.00
47260;BME280;32999;52.412;4.890;2023-03-11T10:01:31;101167.19;;;10.52;100.00
47260;BME280;32999;52.412;4.890;2023-03-11T10:06:35;101157.50;;;10.28;100.00
47260;BME280;32999;52.412;4.890;2023-03-11T10:11:49;101067.59;;;9.89;100.00
47260;BME280;32999;52.412;4.890;2023-03-11T10:17:01;101159.75;;;10.85;100.00
47260;BME280;32999;52.412;4.890;2023-03-11T10:22:13;101170.13;;;11.03;100.00
47260;BME280;32999;52.412;4.890;2023-03-11T10:27:21;101158.47;;;10.58;100.00
47260;BME280;32999;52.412;4.890;2023-03-11T10:38:29;101147.19;;;10.48;100.00
47260;BME280;32999;52.412;4.890;2023-03-11T10:43:40;101153.38;;;11.23;100.00
47260;BME280;32999;52.412;4.890;2023-03-11T10:48:44;101180.25;;;11.74;100.00
47260;BME280;32999;52.412;4.890;2023-03-11T10:53:49;101175.22;;;12.15;100.00
47260;BME280;32999;52.412;4.890;2023-03-11T10:58:51;101168.53;;;12.90;100.00
47260;BME280;32999;52.412;4.890;2023-03-11T11:03:56;101149.97;;;13.44;100.00
47260;BME280;32999;52.412;4.890;2023-03-11T11:09:06;101104.53;;;13.36;100.00
47260;BME280;32999;52.412;4.890;2023-03-11T11:14:08;101100.88;;;13.50;100.00
47260;BME280;32999;52.412;4.890;2023-03-11T11:19:12;101060.47;;;13.72;100.00
47260;BME280;32999;52.412;4.890;2023-03-11T11:24:21;101181.03;;;14.62;100.00
47260;BME280;32999;52.412;4.890;2023-03-11T11:29:24;101175.31;;;15.05;100.00
47260;BME280;32999;52.412;4.890;2023-03-11T11:34:28;101185.09;;;17.04;94.02
47260;BME280;32999;52.412;4.890;2023-03-11T11:39:39;101188.91;;;15.76;87.59
47260;BME280;32999;52.412;4.890;2023-03-11T11:44:54;101123.91;;;15.26;74.95
47260;BME280;32999;52.412;4.890;2023-03-11T11:49:58;101158.53;;;17.44;83.34
47260;BME280;32999;52.412;4.890;2023-03-11T11:55:05;101177.28;;;17.57;75.48
47260;BME280;32999;52.412;4.890;2023-03-11T12:00:16;101160.81;;;14.79;83.20
47260;BME280;32999;52.412;4.890;2023-03-11T12:05:22;101077.88;;;15.47;70.24
47260;BME280;32999;52.412;4.890;2023-03-11T12:10:31;101066.28;;;15.40;73.09
47260;BME280;32999;52.412;4.890;2023-03-11T12:15:36;101139.28;;;15.90;66.72
47260;BME280;32999;52.412;4.890;2023-03-11T12:20:41;100984.56;;;16.22;63.73
47260;BME280;32999;52.412;4.890;2023-03-11T12:25:59;101134.59;;;17.48;61.18
47260;BME280;32999;52.412;4.890;2023-03-11T12:31:06;101044.94;;;16.21;58.63
47260;BME280;32999;52.412;4.890;2023-03-11T12:36:24;101158.53;;;17.62;60.52
47260;BME280;32999;52.412;4.890;2023-03-11T12:41:33;101139.81;;;17.24;60.22
47260;BME280;32999;52.412;4.890;2023-03-11T12:47:19;101132.06;;;13.51;59.15
47260;BME280;32999;52.412;4.890;2023-03-11T12:52:24;101108.22;;;12.79;65.59
47260;BME280;32999;52.412;4.890;2023-03-11T12:57:32;101148.03;;;12.54;71.60
47260;BME280;32999;52.412;4.890;2023-03-11T13:02:50;101088.31;;;12.46;73.41
47260;BME280;32999;52.412;4.890;2023-03-11T13:07:58;101127.34;;;12.98;72.76
47260;BME280;32999;52.412;4.890;2023-03-11T13:13:21;101175.13;;;12.87;72.71
47260;BME280;32999;52.412;4.890;2023-03-11T13:18:24;101176.03;;;12.31;73.05
47260;BME280;32999;52.412;4.890;2023-03-11T13:23:29;101147.25;;;12.60;65.32
47260;BME280;32999;52.412;4.890;2023-03-11T13:28:44;101156.28;;;12.38;64.38
47260;BME280;32999;52.412;4.890;2023-03-11T13:33:51;101161.56;;;12.10;62.59
47260;BME280;32999;52.412;4.890;2023-03-11T13:39:17;101149.16;;;11.58;60.15
47260;BME280;32999;52.412;4.890;2023-03-11T13:44:26;101164.47;;;11.50;57.62
47260;BME280;32999;52.412;4.890;2023-03-11T13:49:34;101176.00;;;11.50;64.14
47260;BME280;32999;52.412;4.890;2023-03-11T13:54:42;101172.47;;;11.65;66.86
47260;BME280;32999;52.412;4.890;2023-03-11T13:59:50;101184.34;;;11.85;64.81
47260;BME280;32999;52.412;4.890;2023-03-11T14:04:55;101178.22;;;11.47;66.85
47260;BME280;32999;52.412;4.890;2023-03-11T14:10:31;101204.44;;;11.51;70.96
47260;BME280;32999;52.412;4.890;2023-03-11T14:15:41;101192.13;;;11.28;72.31
47260;BME280;32999;52.412;4.890;2023-03-11T14:20:46;101204.66;;;10.89;76.44
47260;BME280;32999;52.412;4.890;2023-03-11T14:25:56;101108.94;;;10.25;78.58
47260;BME280;32999;52.412;4.890;2023-03-11T14:31:01;101196.81;;;10.65;82.59
47260;BME280;32999;52.412;4.890;2023-03-11T14:36:05;101202.28;;;10.95;80.91
47260;BME280;32999;52.412;4.890;2023-03-11T14:41:12;101211.66;;;10.90;79.66
47260;BME280;32999;52.412;4.890;2023-03-11T14:46:21;101165.69;;;10.27;80.69
47260;BME280;32999;52.412;4.890;2023-03-11T14:51:26;101231.09;;;10.39;78.93
47260;BME280;32999;52.412;4.890;2023-03-11T14:56:32;101214.78;;;10.17;85.33
47260;BME280;32999;52.412;4.890;2023-03-11T15:01:38;101216.50;;;10.10;89.46
47260;BME280;32999;52.412;4.890;2023-03-11T15:06:42;101085.94;;;9.06;87.33
47260;BME280;32999;52.412;4.890;2023-03-11T15:11:46;101220.69;;;10.44;88.61
47260;BME280;32999;52.412;4.890;2023-03-11T15:16:50;101186.56;;;10.23;86.29
47260;BME280;32999;52.412;4.890;2023-03-11T15:21:52;101205.16;;;10.08;81.99
47260;BME280;32999;52.412;4.890;2023-03-11T15:27:00;101178.00;;;9.49;81.44
47260;BME280;32999;52.412;4.890;2023-03-11T15:32:37;101204.25;;;9.85;85.70
47260;BME280;32999;52.412;4.890;2023-03-11T15:37:40;101101.03;;;9.38;84.12
47260;BME280;32999;52.412;4.890;2023-03-11T15:42:43;101086.06;;;9.21;82.72
47260;BME280;32999;52.412;4.890;2023-03-11T15:47:47;101190.19;;;9.99;80.30
47260;BME280;32999;52.412;4.890;2023-03-11T15:52:50;101100.38;;;9.36;81.63
47260;BME280;32999;52.412;4.890;2023-03-11T15:57:57;101101.72;;;9.24;79.27
47260;BME280;32999;52.412;4.890;2023-03-11T16:03:03;101168.56;;;9.31;83.89
47260;BME280;32999;52.412;4.890;2023-03-11T16:08:11;101201.41;;;9.31;80.76
47260;BME280;32999;52.412;4.890;2023-03-11T17:07:59;101216.25;;;8.10;100.00
47260;BME280;32999;52.412;4.890;2023-03-11T17:13:41;101184.22;;;7.86;100.00
47260;BME280;32999;52.412;4.890;2023-03-11T17:18:44;101227.69;;;7.69;100.00
47260;BME280;32999;52.412;4.890;2023-03-11T17:23:48;101196.63;;;7.43;100.00
47260;BME280;32999;52.412;4.890;2023-03-11T17:28:51;101210.34;;;7.57;100.00
47260;BME280;32999;52.412;4.890;2023-03-11T17:33:53;101097.81;;;6.70;100.00
47260;BME280;32999;52.412;4.890;2023-03-11T17:38:57;101125.53;;;6.94;100.00
47260;BME280;32999;52.412;4.890;2023-03-11T17:43:59;101229.88;;;7.22;100.00
47260;BME280;32999;52.412;4.890;2023-03-11T17:49:01;101183.38;;;7.00;100.00
47260;BME280;32999;52.412;4.890;2023-03-11T17:54:05;101231.97;;;7.10;100.00
47260;BME280;32999;52.412;4.890;2023-03-11T17:59:13;101239.16;;;7.43;100.00
47260;BME280;32999;52.412;4.890;2023-03-11T18:04:33;101246.81;;;7.21;100.00
47260;BME280;32999;52.412;4.890;2023-03-11T18:09:38;101248.81;;;7.01;100.00
47260;BME280;32999;52.412;4.890;2023-03-11T18:33:27;101258.53;;;7.10;100.00
